sensor_id;sensor_type;location;lat;lon;timestamp;P1;durP1;ratioP1;P2;durP2;ratioP2
73695;SDS011;62000;42.262;12.210;2023-11-19T00:00:53;8.13;;;3.10;;
73695;SDS011;62000;42.262;12.210;2023-11-19T00:03:20;6.82;;;2.10;;
73695;SDS011;62000;42.262;12.210;2023-11-19T00:05:46;11.38;;;3.42;;
73695;SDS011;62000;42.262;12.210;2023-11-19T00:08:13;7.43;;;2.58;;
73695;SDS011;62000;42.262;12.210;2023-11-19T00:10:40;7.43;;;2.58;;
73695;SDS011;62000;42.262;12.210;2023-11-19T00:13:06;7.60;;;2.55;;
73695;SDS011;62000;42.262;12.210;2023-11-19T00:15:33;7.65;;;2.45;;
73695;SDS011;62000;42.262;12.210;2023-11-19T00:18:00;8.23;;;1.80;;
73695;SDS011;62000;42.262;12.210;2023-11-19T00:20:30;8.35;;;2.00;;
73695;SDS011;62000;42.262;12.210;2023-11-19T00:22:56;5.47;;;1.40;;
73695;SDS011;62000;42.262;12.210;2023-11-19T00:25:23;5.82;;;1.30;;
73695;SDS011;62000;42.262;12.210;2023-11-19T00:27:50;4.93;;;1.33;;
73695;SDS011;62000;42.262;12.210;2023-11-19T00:30:19;6.38;;;1.70;;
73695;SDS011;62000;42.262;12.210;2023-11-19T00:32:45;8.88;;;2.22;;
73695;SDS011;62000;42.262;12.210;2023-11-19T00:35:12;5.55;;;1.67;;
73695;SDS011;62000;42.262;12.210;2023-11-19T00:37:41;5.72;;;1.25;;
73695;SDS011;62000;42.262;12.210;2023-11-19T00:40:08;5.18;;;1.50;;
73695;SDS011;62000;42.262;12.210;2023-11-19T00:45:02;4.03;;;1.17;;
73695;SDS011;62000;42.262;12.210;2023-11-19T00:47:28;6.10;;;1.40;;
73695;SDS011;62000;42.262;12.210;2023-11-19T00:49:56;7.32;;;1.52;;
73695;SDS011;62000;42.262;12.210;2023-11-19T00:52:23;4.60;;;1.23;;
73695;SDS011;62000;42.262;12.210;2023-11-19T00:54:50;4.57;;;1.42;;
73695;SDS011;62000;42.262;12.210;2023-11-19T00:57:16;6.57;;;1.30;;
73695;SDS011;62000;42.262;12.210;2023-11-19T00:59:43;5.25;;;1.45;;
73695;SDS011;62000;42.262;12.210;2023-11-19T01:02:10;6.90;;;1.77;;
73695;SDS011;62000;42.262;12.210;2023-11-19T01:04:36;8.60;;;1.83;;
73695;SDS011;62000;42.262;12.210;2023-11-19T01:07:04;5.65;;;1.33;;
73695;SDS011;62000;42.262;12.210;2023-11-19T01:09:31;8.98;;;2.30;;
73695;SDS011;62000;42.262;12.210;2023-11-19T01:12:00;9.27;;;2.50;;
73695;SDS011;62000;42.262;12.210;2023-11-19T01:14:27;5.82;;;1.67;;
73695;SDS011;62000;42.262;12.210;2023-11-19T01:16:54;5.55;;;1.48;;
73695;SDS011;62000;42.262;12.210;2023-11-19T01:19:23;4.15;;;1.10;;
73695;SDS011;62000;42.262;12.210;2023-11-19T01:21:50;4.25;;;1.10;;
73695;SDS011;62000;42.262;12.210;2023-11-19T01:24:17;5.75;;;1.40;;
73695;SDS011;62000;42.262;12.210;2023-11-19T01:26:43;4.32;;;1.38;;
73695;SDS011;62000;42.262;12.210;2023-11-19T01:29:11;5.93;;;1.63;;
73695;SDS011;62000;42.262;12.210;2023-11-19T01:31:40;6.20;;;1.20;;
73695;SDS011;62000;42.262;12.210;2023-11-19T01:34:07;4.20;;;1.20;;
73695;SDS011;62000;42.262;12.210;2023-11-19T01:36:34;6.97;;;1.67;;
73695;SDS011;62000;42.262;12.210;2023-11-19T01:39:00;5.63;;;2.05;;
73695;SDS011;62000;42.262;12.210;2023-11-19T01:41:27;5.13;;;1.67;;
73695;SDS011;62000;42.262;12.210;2023-11-19T01:43:53;5.03;;;1.50;;
73695;SDS011;62000;42.262;12.210;2023-11-19T01:46:20;4.03;;;1.00;;
73695;SDS011;62000;42.262;12.210;2023-11-19T01:48:46;7.65;;;1.92;;
73695;SDS011;62000;42.262;12.210;2023-11-19T01:51:13;4.65;;;1.05;;
73695;SDS011;62000;42.262;12.210;2023-11-19T01:53:42;5.85;;;1.60;;
73695;SDS011;62000;42.262;12.210;2023-11-19T01:56:09;4.93;;;1.17;;
73695;SDS011;62000;42.262;12.210;2023-11-19T01:58:36;8.02;;;1.90;;
73695;SDS011;62000;42.262;12.210;2023-11-19T02:03:30;5.18;;;1.30;;
73695;SDS011;62000;42.262;12.210;2023-11-19T02:05:58;4.07;;;1.13;;
73695;SDS011;62000;42.262;12.210;2023-11-19T02:08:25;7.05;;;1.85;;
73695;SDS011;62000;42.262;12.210;2023-11-19T02:10:52;6.05;;;1.30;;
73695;SDS011;62000;42.262;12.210;2023-11-19T02:13:22;7.15;;;1.75;;
73695;SDS011;62000;42.262;12.210;2023-11-19T02:15:50;5.43;;;1.67;;
73695;SDS011;62000;42.262;12.210;2023-11-19T02:18:26;6.13;;;1.73;;
73695;SDS011;62000;42.262;12.210;2023-11-19T02:20:57;6.82;;;1.75;;
73695;SDS011;62000;42.262;12.210;2023-11-19T02:23:26;4.57;;;1.30;;
73695;SDS011;62000;42.262;12.210;2023-11-19T02:26:00;7.30;;;1.75;;
73695;SDS011;62000;42.262;12.210;2023-11-19T02:28:28;6.28;;;1.70;;
73695;SDS011;62000;42.262;12.210;2023-11-19T02:30:54;7.43;;;1.70;;
73695;SDS011;62000;42.262;12.210;2023-11-19T02:33:21;5.65;;;1.30;;
73695;SDS011;62000;42.262;12.210;2023-11-19T02:35:48;5.60;;;1.42;;
73695;SDS011;62000;42.262;12.210;2023-11-19T02:38:15;5.72;;;1.40;;
73695;SDS011;62000;42.262;12.210;2023-11-19T02:40:41;7.25;;;1.45;;
73695;SDS011;62000;42.262;12.210;2023-11-19T02:43:08;7.10;;;1.58;;
73695;SDS011;62000;42.262;12.210;2023-11-19T02:45:35;7.20;;;1.45;;
73695;SDS011;62000;42.262;12.210;2023-11-19T02:48:02;5.50;;;1.35;;
73695;SDS011;62000;42.262;12.210;2023-11-19T02:50:28;4.45;;;1.02;;
73695;SDS011;62000;42.262;12.210;2023-11-19T02:52:55;4.07;;;0.85;;
73695;SDS011;62000;42.262;12.210;2023-11-19T02:55:22;5.85;;;1.58;;
73695;SDS011;62000;42.262;12.210;2023-11-19T02:57:49;6.07;;;1.40;;
73695;SDS011;62000;42.262;12.210;2023-11-19T03:00:20;4.85;;;1.27;;
73695;SDS011;62000;42.262;12.210;2023-11-19T03:02:57;5.25;;;1.25;;
73695;SDS011;62000;42.262;12.210;2023-11-19T03:05:25;4.97;;;1.20;;
73695;SDS011;62000;42.262;12.210;2023-11-19T03:07:55;4.35;;;1.25;;
73695;SDS011;62000;42.262;12.210;2023-11-19T03:10:22;3.83;;;0.85;;
73695;SDS011;62000;42.262;12.210;2023-11-19T03:12:49;3.28;;;0.88;;
73695;SDS011;62000;42.262;12.210;2023-11-19T03:15:16;5.05;;;0.82;;
73695;SDS011;62000;42.262;12.210;2023-11-19T03:17:42;7.00;;;1.05;;
73695;SDS011;62000;42.262;12.210;2023-11-19T03:20:10;3.85;;;0.90;;
73695;SDS011;62000;42.262;12.210;2023-11-19T03:22:40;6.43;;;1.35;;
73695;SDS011;62000;42.262;12.210;2023-11-19T03:25:07;5.47;;;1.30;;
73695;SDS011;62000;42.262;12.210;2023-11-19T03:27:35;4.47;;;1.13;;
73695;SDS011;62000;42.262;12.210;2023-11-19T03:30:02;17.45;;;1.25;;
73695;SDS011;62000;42.262;12.210;2023-11-19T03:32:33;4.53;;;1.02;;
73695;SDS011;62000;42.262;12.210;2023-11-19T03:35:03;4.20;;;0.82;;
73695;SDS011;62000;42.262;12.210;2023-11-19T03:37:32;5.40;;;0.80;;
73695;SDS011;62000;42.262;12.210;2023-11-19T03:39:59;4.75;;;1.10;;
73695;SDS011;62000;42.262;12.210;2023-11-19T03:42:26;4.18;;;0.80;;
73695;SDS011;62000;42.262;12.210;2023-11-19T03:44:53;4.00;;;1.23;;
73695;SDS011;62000;42.262;12.210;2023-11-19T03:47:19;4.68;;;0.80;;
73695;SDS011;62000;42.262;12.210;2023-11-19T03:49:49;3.63;;;0.73;;
73695;SDS011;62000;42.262;12.210;2023-11-19T03:52:16;3.15;;;0.68;;
73695;SDS011;62000;42.262;12.210;2023-11-19T03:54:43;5.13;;;0.93;;
73695;SDS011;62000;42.262;12.210;2023-11-19T03:57:11;4.03;;;0.75;;
73695;SDS011;62000;42.262;12.210;2023-11-19T03:59:38;6.25;;;0.98;;
73695;SDS011;62000;42.262;12.210;2023-11-19T04:02:04;4.35;;;1.02;;
73695;SDS011;62000;42.262;12.210;2023-11-19T04:04:31;4.95;;;1.08;;
73695;SDS011;62000;42.262;12.210;2023-11-19T04:06:59;3.55;;;0.90;;
73695;SDS011;62000;42.262;12.210;2023-11-19T04:09:26;7.28;;;1.13;;
73695;SDS011;62000;42.262;12.210;2023-11-19T04:11:53;3.70;;;0.82;;
73695;SDS011;62000;42.262;12.210;2023-11-19T04:14:19;4.28;;;1.20;;
73695;SDS011;62000;42.262;12.210;2023-11-19T04:16:45;4.93;;;0.80;;
73695;SDS011;62000;42.262;12.210;2023-11-19T04:19:12;6.03;;;1.10;;
73695;SDS011;62000;42.262;12.210;2023-11-19T04:21:41;4.15;;;1.08;;
73695;SDS011;62000;42.262;12.210;2023-11-19T04:24:08;4.85;;;1.05;;
73695;SDS011;62000;42.262;12.210;2023-11-19T04:26:42;5.40;;;1.10;;
73695;SDS011;62000;42.262;12.210;2023-11-19T04:29:14;4.75;;;1.15;;
73695;SDS011;62000;42.262;12.210;2023-11-19T04:31:43;4.60;;;1.17;;
73695;SDS011;62000;42.262;12.210;2023-11-19T04:34:12;6.45;;;1.25;;
73695;SDS011;62000;42.262;12.210;2023-11-19T04:36:39;5.93;;;1.50;;
73695;SDS011;62000;42.262;12.210;2023-11-19T04:39:05;5.72;;;1.63;;
73695;SDS011;62000;42.262;12.210;2023-11-19T04:41:51;3.55;;;0.77;;
73695;SDS011;62000;42.262;12.210;2023-11-19T04:44:18;5.03;;;1.20;;
73695;SDS011;62000;42.262;12.210;2023-11-19T04:46:45;4.38;;;1.20;;
73695;SDS011;62000;42.262;12.210;2023-11-19T04:49:12;5.72;;;1.13;;
73695;SDS011;62000;42.262;12.210;2023-11-19T04:51:42;5.32;;;1.20;;
73695;SDS011;62000;42.262;12.210;2023-11-19T04:54:09;5.30;;;1.17;;
73695;SDS011;62000;42.262;12.210;2023-11-19T04:56:36;5.22;;;1.10;;
73695;SDS011;62000;42.262;12.210;2023-11-19T04:59:03;5.47;;;1.27;;
73695;SDS011;62000;42.262;12.210;2023-11-19T05:03:57;5.13;;;0.95;;
73695;SDS011;62000;42.262;12.210;2023-11-19T05:06:27;3.42;;;0.77;;
73695;SDS011;62000;42.262;12.210;2023-11-19T05:08:58;4.93;;;0.90;;
73695;SDS011;62000;42.262;12.210;2023-11-19T05:11:26;4.85;;;1.17;;
73695;SDS011;62000;42.262;12.210;2023-11-19T05:13:54;5.70;;;0.93;;
73695;SDS011;62000;42.262;12.210;2023-11-19T05:16:20;3.38;;;0.85;;
73695;SDS011;62000;42.262;12.210;2023-11-19T05:18:47;4.05;;;0.82;;
73695;SDS011;62000;42.262;12.210;2023-11-19T05:21:13;2.63;;;0.55;;
73695;SDS011;62000;42.262;12.210;2023-11-19T05:23:40;5.70;;;0.98;;
73695;SDS011;62000;42.262;12.210;2023-11-19T05:26:07;3.30;;;0.52;;
73695;SDS011;62000;42.262;12.210;2023-11-19T05:28:34;4.00;;;0.80;;
73695;SDS011;62000;42.262;12.210;2023-11-19T05:31:01;4.13;;;0.70;;
73695;SDS011;62000;42.262;12.210;2023-11-19T05:33:27;2.35;;;0.60;;
73695;SDS011;62000;42.262;12.210;2023-11-19T05:35:54;2.75;;;0.80;;
73695;SDS011;62000;42.262;12.210;2023-11-19T05:38:20;4.05;;;1.02;;
73695;SDS011;62000;42.262;12.210;2023-11-19T05:40:47;3.00;;;0.60;;
73695;SDS011;62000;42.262;12.210;2023-11-19T05:43:13;3.50;;;0.65;;
73695;SDS011;62000;42.262;12.210;2023-11-19T05:45:42;3.35;;;0.70;;
73695;SDS011;62000;42.262;12.210;2023-11-19T05:48:09;4.10;;;0.95;;
73695;SDS011;62000;42.262;12.210;2023-11-19T05:50:36;2.95;;;0.73;;
73695;SDS011;62000;42.262;12.210;2023-11-19T05:53:02;3.97;;;0.80;;
73695;SDS011;62000;42.262;12.210;2023-11-19T05:55:33;4.03;;;0.93;;
73695;SDS011;62000;42.262;12.210;2023-11-19T05:58:00;3.08;;;0.80;;
73695;SDS011;62000;42.262;12.210;2023-11-19T06:00:28;4.85;;;1.00;;
73695;SDS011;62000;42.262;12.210;2023-11-19T06:02:56;3.47;;;0.80;;
73695;SDS011;62000;42.262;12.210;2023-11-19T06:05:22;4.18;;;0.90;;
73695;SDS011;62000;42.262;12.210;2023-11-19T06:07:49;4.45;;;1.27;;
73695;SDS011;62000;42.262;12.210;2023-11-19T06:10:16;5.90;;;1.00;;
73695;SDS011;62000;42.262;12.210;2023-11-19T06:12:44;5.65;;;1.00;;
73695;SDS011;62000;42.262;12.210;2023-11-19T06:15:11;5.95;;;0.88;;
73695;SDS011;62000;42.262;12.210;2023-11-19T06:17:38;5.18;;;1.02;;
73695;SDS011;62000;42.262;12.210;2023-11-19T06:20:05;5.05;;;1.00;;
73695;SDS011;62000;42.262;12.210;2023-11-19T06:22:33;4.95;;;0.98;;
73695;SDS011;62000;42.262;12.210;2023-11-19T06:24:59;4.30;;;0.80;;
73695;SDS011;62000;42.262;12.210;2023-11-19T06:27:26;4.63;;;1.00;;
73695;SDS011;62000;42.262;12.210;2023-11-19T06:29:52;3.00;;;0.73;;
73695;SDS011;62000;42.262;12.210;2023-11-19T06:32:19;3.72;;;0.85;;
73695;SDS011;62000;42.262;12.210;2023-11-19T06:34:45;3.78;;;0.88;;
73695;SDS011;62000;42.262;12.210;2023-11-19T06:37:12;5.07;;;0.93;;
73695;SDS011;62000;42.262;12.210;2023-11-19T06:39:38;4.25;;;0.80;;
73695;SDS011;62000;42.262;12.210;2023-11-19T06:42:06;3.90;;;1.05;;
73695;SDS011;62000;42.262;12.210;2023-11-19T06:44:32;3.88;;;0.90;;
73695;SDS011;62000;42.262;12.210;2023-11-19T06:46:59;4.25;;;0.98;;
73695;SDS011;62000;42.262;12.210;2023-11-19T06:49:26;3.92;;;0.80;;
73695;SDS011;62000;42.262;12.210;2023-11-19T06:51:52;5.45;;;0.90;;
73695;SDS011;62000;42.262;12.210;2023-11-19T06:54:19;4.85;;;1.08;;
73695;SDS011;62000;42.262;12.210;2023-11-19T06:56:45;4.63;;;1.20;;
73695;SDS011;62000;42.262;12.210;2023-11-19T06:59:12;5.90;;;0.90;;
73695;SDS011;62000;42.262;12.210;2023-11-19T07:01:38;3.70;;;0.90;;
73695;SDS011;62000;42.262;12.210;2023-11-19T07:04:05;4.22;;;1.15;;
73695;SDS011;62000;42.262;12.210;2023-11-19T07:06:38;4.80;;;0.93;;
73695;SDS011;62000;42.262;12.210;2023-11-19T07:09:07;5.18;;;1.48;;
73695;SDS011;62000;42.262;12.210;2023-11-19T07:11:40;5.60;;;1.73;;
73695;SDS011;62000;42.262;12.210;2023-11-19T07:14:07;8.60;;;2.10;;
73695;SDS011;62000;42.262;12.210;2023-11-19T07:16:34;7.63;;;2.55;;
73695;SDS011;62000;42.262;12.210;2023-11-19T07:19:03;8.95;;;2.85;;
73695;SDS011;62000;42.262;12.210;2023-11-19T07:21:30;10.30;;;4.00;;
73695;SDS011;62000;42.262;12.210;2023-11-19T07:23:58;11.63;;;3.97;;
73695;SDS011;62000;42.262;12.210;2023-11-19T07:26:25;9.65;;;3.13;;
73695;SDS011;62000;42.262;12.210;2023-11-19T07:28:52;9.52;;;3.35;;
73695;SDS011;62000;42.262;12.210;2023-11-19T07:31:19;7.90;;;2.75;;
73695;SDS011;62000;42.262;12.210;2023-11-19T07:33:46;6.70;;;1.95;;
73695;SDS011;62000;42.262;12.210;2023-11-19T07:38:39;6.70;;;1.48;;
73695;SDS011;62000;42.262;12.210;2023-11-19T07:41:06;5.18;;;1.50;;
73695;SDS011;62000;42.262;12.210;2023-11-19T07:43:35;6.88;;;1.58;;
73695;SDS011;62000;42.262;12.210;2023-11-19T07:46:01;5.80;;;1.80;;
73695;SDS011;62000;42.262;12.210;2023-11-19T07:48:29;7.70;;;1.65;;
73695;SDS011;62000;42.262;12.210;2023-11-19T07:50:57;6.68;;;1.83;;
73695;SDS011;62000;42.262;12.210;2023-11-19T07:53:23;6.07;;;2.13;;
73695;SDS011;62000;42.262;12.210;2023-11-19T07:55:50;6.40;;;1.83;;
73695;SDS011;62000;42.262;12.210;2023-11-19T07:58:16;8.30;;;2.13;;
73695;SDS011;62000;42.262;12.210;2023-11-19T08:00:43;9.35;;;3.00;;
73695;SDS011;62000;42.262;12.210;2023-11-19T08:03:09;7.32;;;2.22;;
73695;SDS011;62000;42.262;12.210;2023-11-19T08:05:36;8.00;;;2.53;;
73695;SDS011;62000;42.262;12.210;2023-11-19T08:08:03;6.85;;;2.22;;
73695;SDS011;62000;42.262;12.210;2023-11-19T08:10:29;8.75;;;2.63;;
73695;SDS011;62000;42.262;12.210;2023-11-19T08:12:56;7.55;;;2.40;;
73695;SDS011;62000;42.262;12.210;2023-11-19T08:15:22;6.43;;;1.58;;
73695;SDS011;62000;42.262;12.210;2023-11-19T08:17:49;5.85;;;1.55;;
73695;SDS011;62000;42.262;12.210;2023-11-19T08:20:15;9.35;;;1.55;;
73695;SDS011;62000;42.262;12.210;2023-11-19T08:22:42;3.85;;;1.10;;
73695;SDS011;62000;42.262;12.210;2023-11-19T08:25:08;4.95;;;0.77;;
73695;SDS011;62000;42.262;12.210;2023-11-19T08:27:35;4.45;;;0.98;;
73695;SDS011;62000;42.262;12.210;2023-11-19T08:30:01;2.75;;;0.70;;
73695;SDS011;62000;42.262;12.210;2023-11-19T08:32:28;4.78;;;0.77;;
73695;SDS011;62000;42.262;12.210;2023-11-19T08:34:54;4.53;;;1.05;;
73695;SDS011;62000;42.262;12.210;2023-11-19T08:37:21;5.57;;;1.17;;
73695;SDS011;62000;42.262;12.210;2023-11-19T08:39:48;5.85;;;1.23;;
73695;SDS011;62000;42.262;12.210;2023-11-19T08:42:15;5.57;;;1.13;;
73695;SDS011;62000;42.262;12.210;2023-11-19T08:44:42;6.43;;;1.30;;
73695;SDS011;62000;42.262;12.210;2023-11-19T08:47:09;7.47;;;1.13;;
73695;SDS011;62000;42.262;12.210;2023-11-19T08:49:36;5.50;;;1.00;;
73695;SDS011;62000;42.262;12.210;2023-11-19T08:52:02;3.97;;;0.98;;
73695;SDS011;62000;42.262;12.210;2023-11-19T08:54:29;4.07;;;1.00;;
73695;SDS011;62000;42.262;12.210;2023-11-19T08:56:55;4.07;;;1.10;;
73695;SDS011;62000;42.262;12.210;2023-11-19T08:59:22;7.30;;;1.33;;
73695;SDS011;62000;42.262;12.210;2023-11-19T09:01:48;4.03;;;0.82;;
73695;SDS011;62000;42.262;12.210;2023-11-19T09:04:15;4.75;;;1.15;;
73695;SDS011;62000;42.262;12.210;2023-11-19T09:06:41;3.58;;;0.95;;
73695;SDS011;62000;42.262;12.210;2023-11-19T09:09:08;4.60;;;1.00;;
73695;SDS011;62000;42.262;12.210;2023-11-19T09:11:35;4.60;;;0.90;;
73695;SDS011;62000;42.262;12.210;2023-11-19T09:16:28;9.43;;;2.70;;
73695;SDS011;62000;42.262;12.210;2023-11-19T09:18:54;13.52;;;4.15;;
73695;SDS011;62000;42.262;12.210;2023-11-19T09:21:21;6.70;;;2.08;;
73695;SDS011;62000;42.262;12.210;2023-11-19T09:23:47;5.25;;;0.98;;
73695;SDS011;62000;42.262;12.210;2023-11-19T09:26:14;5.03;;;1.20;;
73695;SDS011;62000;42.262;12.210;2023-11-19T09:28:41;5.28;;;1.67;;
73695;SDS011;62000;42.262;12.210;2023-11-19T09:31:16;5.55;;;1.40;;
73695;SDS011;62000;42.262;12.210;2023-11-19T09:33:43;4.18;;;1.05;;
73695;SDS011;62000;42.262;12.210;2023-11-19T09:36:14;4.68;;;1.10;;
73695;SDS011;62000;42.262;12.210;2023-11-19T09:38:42;3.90;;;1.10;;
73695;SDS011;62000;42.262;12.210;2023-11-19T09:41:09;4.25;;;1.10;;
73695;SDS011;62000;42.262;12.210;2023-11-19T09:43:39;3.83;;;0.82;;
73695;SDS011;62000;42.262;12.210;2023-11-19T09:46:06;3.38;;;0.73;;
73695;SDS011;62000;42.262;12.210;2023-11-19T09:48:33;3.83;;;0.80;;
73695;SDS011;62000;42.262;12.210;2023-11-19T09:51:00;3.92;;;0.85;;
73695;SDS011;62000;42.262;12.210;2023-11-19T09:53:27;3.78;;;0.85;;
73695;SDS011;62000;42.262;12.210;2023-11-19T09:55:53;3.10;;;0.73;;
73695;SDS011;62000;42.262;12.210;2023-11-19T09:58:21;4.88;;;1.30;;
73695;SDS011;62000;42.262;12.210;2023-11-19T10:00:49;4.95;;;1.50;;
73695;SDS011;62000;42.262;12.210;2023-11-19T10:03:17;4.18;;;1.15;;
73695;SDS011;62000;42.262;12.210;2023-11-19T10:05:46;5.38;;;1.17;;
73695;SDS011;62000;42.262;12.210;2023-11-19T10:08:13;4.32;;;1.30;;
73695;SDS011;62000;42.262;12.210;2023-11-19T10:10:39;5.40;;;1.63;;
73695;SDS011;62000;42.262;12.210;2023-11-19T10:13:06;4.55;;;1.15;;
73695;SDS011;62000;42.262;12.210;2023-11-19T10:15:36;4.82;;;0.82;;
73695;SDS011;62000;42.262;12.210;2023-11-19T10:18:02;6.07;;;1.80;;
73695;SDS011;62000;42.262;12.210;2023-11-19T10:20:41;6.78;;;1.63;;
73695;SDS011;62000;42.262;12.210;2023-11-19T10:23:09;6.78;;;1.40;;
73695;SDS011;62000;42.262;12.210;2023-11-19T10:25:36;6.35;;;2.03;;
73695;SDS011;62000;42.262;12.210;2023-11-19T10:28:03;5.32;;;1.70;;
73695;SDS011;62000;42.262;12.210;2023-11-19T10:30:30;7.68;;;2.33;;
73695;SDS011;62000;42.262;12.210;2023-11-19T10:35:34;7.30;;;1.85;;
73695;SDS011;62000;42.262;12.210;2023-11-19T10:38:04;10.25;;;3.65;;
73695;SDS011;62000;42.262;12.210;2023-11-19T10:40:40;11.20;;;2.92;;
73695;SDS011;62000;42.262;12.210;2023-11-19T10:43:06;12.35;;;4.85;;
73695;SDS011;62000;42.262;12.210;2023-11-19T10:45:34;11.40;;;3.25;;
73695;SDS011;62000;42.262;12.210;2023-11-19T10:48:00;9.30;;;2.33;;
73695;SDS011;62000;42.262;12.210;2023-11-19T10:50:32;5.65;;;1.55;;
73695;SDS011;62000;42.262;12.210;2023-11-19T10:52:59;5.80;;;2.05;;
73695;SDS011;62000;42.262;12.210;2023-11-19T10:55:30;5.50;;;1.65;;
73695;SDS011;62000;42.262;12.210;2023-11-19T10:58:03;6.60;;;2.15;;
73695;SDS011;62000;42.262;12.210;2023-11-19T11:03:00;4.68;;;1.40;;
73695;SDS011;62000;42.262;12.210;2023-11-19T11:05:26;5.22;;;1.23;;
73695;SDS011;62000;42.262;12.210;2023-11-19T11:07:55;5.18;;;1.35;;
73695;SDS011;62000;42.262;12.210;2023-11-19T11:10:24;3.90;;;1.27;;
73695;SDS011;62000;42.262;12.210;2023-11-19T11:12:54;5.10;;;1.20;;
73695;SDS011;62000;42.262;12.210;2023-11-19T11:15:27;12.82;;;7.45;;
73695;SDS011;62000;42.262;12.210;2023-11-19T11:18:00;7.68;;;3.17;;
73695;SDS011;62000;42.262;12.210;2023-11-19T11:20:30;5.35;;;1.48;;
73695;SDS011;62000;42.262;12.210;2023-11-19T11:30:55;7.93;;;1.83;;
73695;SDS011;62000;42.262;12.210;2023-11-19T11:33:32;8.38;;;3.00;;
73695;SDS011;62000;42.262;12.210;2023-11-19T11:36:07;5.68;;;1.77;;
73695;SDS011;62000;42.262;12.210;2023-11-19T11:38:37;8.75;;;1.80;;
73695;SDS011;62000;42.262;12.210;2023-11-19T11:41:20;5.00;;;1.70;;
73695;SDS011;62000;42.262;12.210;2023-11-19T11:43:50;9.55;;;2.00;;
73695;SDS011;62000;42.262;12.210;2023-11-19T11:49:25;7.53;;;2.30;;
73695;SDS011;62000;42.262;12.210;2023-11-19T11:51:58;7.68;;;2.20;;
73695;SDS011;62000;42.262;12.210;2023-11-19T11:54:25;6.82;;;1.98;;
73695;SDS011;62000;42.262;12.210;2023-11-19T11:59:36;8.65;;;2.67;;
73695;SDS011;62000;42.262;12.210;2023-11-19T12:02:05;6.05;;;1.75;;
73695;SDS011;62000;42.262;12.210;2023-11-19T12:04:34;4.47;;;1.33;;
73695;SDS011;62000;42.262;12.210;2023-11-19T12:07:20;5.20;;;1.48;;
73695;SDS011;62000;42.262;12.210;2023-11-19T12:09:51;5.90;;;1.20;;
73695;SDS011;62000;42.262;12.210;2023-11-19T12:12:20;5.82;;;1.30;;
73695;SDS011;62000;42.262;12.210;2023-11-19T12:14:59;5.78;;;1.70;;
73695;SDS011;62000;42.262;12.210;2023-11-19T12:20:02;9.00;;;1.92;;
73695;SDS011;62000;42.262;12.210;2023-11-19T12:22:31;5.40;;;1.58;;
73695;SDS011;62000;42.262;12.210;2023-11-19T12:27:24;6.60;;;2.00;;
73695;SDS011;62000;42.262;12.210;2023-11-19T12:29:51;7.25;;;1.60;;
73695;SDS011;62000;42.262;12.210;2023-11-19T12:32:18;5.70;;;2.08;;
73695;SDS011;62000;42.262;12.210;2023-11-19T12:34:45;6.18;;;1.13;;
73695;SDS011;62000;42.262;12.210;2023-11-19T12:37:11;5.75;;;1.67;;
73695;SDS011;62000;42.262;12.210;2023-11-19T12:39:38;5.18;;;1.42;;
73695;SDS011;62000;42.262;12.210;2023-11-19T12:42:05;4.70;;;1.30;;
73695;SDS011;62000;42.262;12.210;2023-11-19T12:44:32;5.72;;;1.40;;
73695;SDS011;62000;42.262;12.210;2023-11-19T12:49:29;7.07;;;1.90;;
73695;SDS011;62000;42.262;12.210;2023-11-19T12:51:56;3.70;;;1.13;;
73695;SDS011;62000;42.262;12.210;2023-11-19T12:54:32;6.78;;;1.70;;
73695;SDS011;62000;42.262;12.210;2023-11-19T12:57:01;7.28;;;1.70;;
73695;SDS011;62000;42.262;12.210;2023-11-19T12:59:28;4.70;;;1.45;;
73695;SDS011;62000;42.262;12.210;2023-11-19T13:01:55;4.25;;;1.17;;
73695;SDS011;62000;42.262;12.210;2023-11-19T13:04:22;4.63;;;1.27;;
73695;SDS011;62000;42.262;12.210;2023-11-19T13:06:50;5.65;;;1.35;;
73695;SDS011;62000;42.262;12.210;2023-11-19T13:11:53;8.35;;;2.35;;
73695;SDS011;62000;42.262;12.210;2023-11-19T13:14:20;5.95;;;1.42;;
73695;SDS011;62000;42.262;12.210;2023-11-19T13:16:46;5.40;;;1.40;;
73695;SDS011;62000;42.262;12.210;2023-11-19T13:19:16;5.72;;;1.63;;
73695;SDS011;62000;42.262;12.210;2023-11-19T13:21:44;6.50;;;1.42;;
73695;SDS011;62000;42.262;12.210;2023-11-19T13:24:13;7.50;;;1.40;;
73695;SDS011;62000;42.262;12.210;2023-11-19T13:26:39;5.60;;;1.23;;
73695;SDS011;62000;42.262;12.210;2023-11-19T13:29:05;5.07;;;1.52;;
73695;SDS011;62000;42.262;12.210;2023-11-19T13:31:32;5.60;;;1.60;;
73695;SDS011;62000;42.262;12.210;2023-11-19T13:33:58;6.53;;;1.27;;
73695;SDS011;62000;42.262;12.210;2023-11-19T13:36:25;9.13;;;1.50;;
73695;SDS011;62000;42.262;12.210;2023-11-19T13:38:51;6.82;;;1.30;;
73695;SDS011;62000;42.262;12.210;2023-11-19T13:41:25;6.50;;;1.40;;
73695;SDS011;62000;42.262;12.210;2023-11-19T13:43:51;5.03;;;1.38;;
73695;SDS011;62000;42.262;12.210;2023-11-19T13:46:19;6.55;;;1.92;;
73695;SDS011;62000;42.262;12.210;2023-11-19T13:48:45;8.55;;;2.28;;
73695;SDS011;62000;42.262;12.210;2023-11-19T13:51:12;7.78;;;2.72;;
73695;SDS011;62000;42.262;12.210;2023-11-19T13:53:38;8.55;;;2.38;;
73695;SDS011;62000;42.262;12.210;2023-11-19T13:56:05;8.02;;;2.30;;
73695;SDS011;62000;42.262;12.210;2023-11-19T13:58:31;12.82;;;2.15;;
73695;SDS011;62000;42.262;12.210;2023-11-19T14:00:58;6.60;;;1.75;;
73695;SDS011;62000;42.262;12.210;2023-11-19T14:03:24;5.97;;;1.42;;
73695;SDS011;62000;42.262;12.210;2023-11-19T14:05:51;6.53;;;1.60;;
73695;SDS011;62000;42.262;12.210;2023-11-19T14:08:20;6.88;;;1.63;;
73695;SDS011;62000;42.262;12.210;2023-11-19T14:10:47;8.50;;;2.35;;
73695;SDS011;62000;42.262;12.210;2023-11-19T14:13:14;8.88;;;2.33;;
73695;SDS011;62000;42.262;12.210;2023-11-19T14:15:40;5.60;;;1.17;;
73695;SDS011;62000;42.262;12.210;2023-11-19T14:18:08;4.88;;;1.30;;
73695;SDS011;62000;42.262;12.210;2023-11-19T14:20:34;6.15;;;1.33;;
73695;SDS011;62000;42.262;12.210;2023-11-19T14:23:03;4.57;;;1.10;;
73695;SDS011;62000;42.262;12.210;2023-11-19T14:25:29;7.85;;;1.25;;
73695;SDS011;62000;42.262;12.210;2023-11-19T14:27:55;6.57;;;1.33;;
73695;SDS011;62000;42.262;12.210;2023-11-19T14:30:22;9.23;;;1.42;;
73695;SDS011;62000;42.262;12.210;2023-11-19T14:32:48;5.05;;;1.15;;
73695;SDS011;62000;42.262;12.210;2023-11-19T14:35:15;7.63;;;1.80;;
73695;SDS011;62000;42.262;12.210;2023-11-19T14:37:41;5.85;;;1.70;;
73695;SDS011;62000;42.262;12.210;2023-11-19T14:40:08;6.63;;;1.73;;
73695;SDS011;62000;42.262;12.210;2023-11-19T14:42:37;7.80;;;1.70;;
73695;SDS011;62000;42.262;12.210;2023-11-19T14:45:04;8.45;;;1.60;;
73695;SDS011;62000;42.262;12.210;2023-11-19T14:47:31;8.45;;;1.52;;
73695;SDS011;62000;42.262;12.210;2023-11-19T14:49:58;7.65;;;2.90;;
73695;SDS011;62000;42.262;12.210;2023-11-19T14:54:51;12.02;;;3.88;;
73695;SDS011;62000;42.262;12.210;2023-11-19T14:57:19;10.02;;;3.65;;
73695;SDS011;62000;42.262;12.210;2023-11-19T14:59:46;14.73;;;6.85;;
73695;SDS011;62000;42.262;12.210;2023-11-19T15:02:13;14.40;;;5.63;;
73695;SDS011;62000;42.262;12.210;2023-11-19T15:04:39;7.93;;;2.85;;
73695;SDS011;62000;42.262;12.210;2023-11-19T15:07:06;6.90;;;1.92;;
73695;SDS011;62000;42.262;12.210;2023-11-19T15:09:33;7.93;;;2.20;;
73695;SDS011;62000;42.262;12.210;2023-11-19T15:12:02;8.93;;;2.90;;
73695;SDS011;62000;42.262;12.210;2023-11-19T15:14:28;10.80;;;2.08;;
73695;SDS011;62000;42.262;12.210;2023-11-19T15:16:56;11.35;;;4.10;;
73695;SDS011;62000;42.262;12.210;2023-11-19T15:19:23;10.23;;;3.60;;